createdAt,value
2023-02-12T00:01:23.746Z,41.47
2023-02-12T00:03:52.227Z,41.60
2023-02-12T00:06:26.774Z,44.50
2023-02-12T00:08:58.129Z,43.03
2023-02-12T00:11:34.766Z,41.70
2023-02-12T00:14:09.697Z,40.40
2023-02-12T00:16:44.719Z,41.53
2023-02-12T00:19:13.091Z,45.33
2023-02-12T00:21:47.790Z,40.53
2023-02-12T00:24:17.386Z,39.17
2023-02-12T00:26:51.753Z,42.60
2023-02-12T00:29:19.936Z,44.70
2023-02-12T00:31:54.826Z,47.40
2023-02-12T00:34:23.019Z,44.97
2023-02-12T00:36:57.732Z,44.10
2023-02-12T00:39:27.302Z,42.00
2023-02-12T00:42:02.753Z,43.03
2023-02-12T00:44:30.950Z,42.60
2023-02-12T00:47:08.765Z,39.63
2023-02-12T00:49:37.030Z,39.23
2023-02-12T00:52:12.749Z,44.63
2023-02-12T00:54:42.759Z,42.77
2023-02-12T00:57:17.768Z,42.90
2023-02-12T00:59:45.982Z,39.97
2023-02-12T01:02:20.800Z,36.83
2023-02-12T01:04:49.045Z,39.97
2023-02-12T01:07:23.799Z,36.03
2023-02-12T01:09:53.378Z,35.33
2023-02-12T01:12:27.759Z,36.33
2023-02-12T01:15:02.055Z,36.80
2023-02-12T01:17:36.777Z,36.47
2023-02-12T01:20:13.821Z,33.77
2023-02-12T01:22:42.010Z,33.47
2023-02-12T01:25:20.513Z,32.10
2023-02-12T01:27:49.083Z,32.73
2023-02-12T01:30:24.807Z,36.20
2023-02-12T01:32:53.196Z,32.50
2023-02-12T01:35:27.865Z,37.70
2023-02-12T01:37:58.334Z,40.43
2023-02-12T01:40:34.799Z,36.73
2023-02-12T01:43:03.633Z,35.53
2023-02-12T01:45:54.372Z,37.73
2023-02-12T01:48:26.814Z,38.53
2023-02-12T01:51:03.816Z,37.47
2023-02-12T01:53:36.687Z,35.13
2023-02-12T01:56:14.811Z,35.47
2023-02-12T01:58:45.117Z,32.87
2023-02-12T02:01:24.968Z,34.47
2023-02-12T02:04:03.914Z,33.83
2023-02-12T02:06:41.874Z,35.27
2023-02-12T02:09:10.807Z,32.87
2023-02-12T02:12:04.916Z,31.17
2023-02-12T02:14:36.737Z,34.97
2023-02-12T02:17:23.878Z,32.47
2023-02-12T02:20:17.938Z,36.63
2023-02-12T02:22:57.933Z,32.87
2023-02-12T02:25:44.021Z,32.60
2023-02-12T02:28:40.179Z,25.57
2023-02-12T02:31:19.381Z,29.13
2023-02-12T02:34:02.935Z,30.97
2023-02-12T02:36:40.007Z,32.13
2023-02-12T02:39:26.967Z,29.10
2023-02-12T02:42:01.557Z,30.57
2023-02-12T02:44:42.959Z,29.30
2023-02-12T02:47:17.662Z,27.23
2023-02-12T02:49:57.902Z,29.87
2023-02-12T02:52:37.232Z,29.40
2023-02-12T02:55:18.184Z,31.63
2023-02-12T02:57:56.985Z,30.80
2023-02-12T03:00:33.261Z,31.13
2023-02-12T03:03:22.099Z,30.80
2023-02-12T03:05:56.744Z,33.20
2023-02-12T03:08:34.911Z,31.87
2023-02-12T03:11:08.989Z,30.20
2023-02-12T03:13:49.950Z,37.13
2023-02-12T03:16:22.827Z,30.40
2023-02-12T03:19:04.223Z,33.53
2023-02-12T03:21:37.971Z,34.27
2023-02-12T03:24:20.235Z,32.13
2023-02-12T03:26:53.604Z,35.77
2023-02-12T03:29:29.255Z,30.23
2023-02-12T03:32:07.257Z,30.43
2023-02-12T03:34:53.948Z,28.50
2023-02-12T03:37:30.796Z,31.53
2023-02-12T03:40:15.316Z,29.33
2023-02-12T03:42:49.985Z,30.37
2023-02-12T03:45:36.271Z,29.20
2023-02-12T03:48:11.253Z,29.20
2023-02-12T03:50:53.976Z,30.37
2023-02-12T03:53:22.769Z,28.73
2023-02-12T03:56:03.021Z,28.87
2023-02-12T03:58:34.314Z,29.30
2023-02-12T04:01:10.485Z,27.60
2023-02-12T04:03:46.044Z,28.73
2023-02-12T04:06:36.981Z,30.30
2023-02-12T04:09:08.776Z,27.33
2023-02-12T04:11:53.997Z,29.20
2023-02-12T04:14:35.064Z,28.13
2023-02-12T04:17:10.739Z,30.90
2023-02-12T04:19:59.360Z,29.10
2023-02-12T04:22:41.614Z,31.50
2023-02-12T04:25:25.062Z,31.93
2023-02-12T04:28:01.447Z,30.73
2023-02-12T04:30:40.284Z,28.33
2023-02-12T04:33:12.824Z,29.57
2023-02-12T04:35:55.605Z,29.30
2023-02-12T04:38:31.208Z,29.47
2023-02-12T04:41:07.329Z,27.90
2023-02-12T04:43:39.044Z,27.33
2023-02-12T04:46:16.378Z,25.97
2023-02-12T04:48:53.901Z,27.03
2023-02-12T04:51:29.305Z,26.93
2023-02-12T04:53:59.654Z,27.43
2023-02-12T04:56:35.001Z,26.17
2023-02-12T04:59:03.770Z,27.43
2023-02-12T05:01:39.102Z,27.40
2023-02-12T05:04:15.535Z,26.27
2023-02-12T05:06:51.126Z,28.23
2023-02-12T05:09:22.857Z,26.00
2023-02-12T05:11:58.027Z,24.67
2023-02-12T05:14:26.981Z,27.27
2023-02-12T05:17:02.047Z,26.73
2023-02-12T05:19:30.961Z,25.73
2023-02-12T05:22:06.078Z,27.33
2023-02-12T05:24:36.311Z,28.07
2023-02-12T05:27:11.038Z,25.90
2023-02-12T05:29:39.875Z,27.60
2023-02-12T05:32:16.103Z,25.90
2023-02-12T05:34:44.600Z,27.43
2023-02-12T05:37:19.057Z,27.70
2023-02-12T05:39:50.929Z,26.40
2023-02-12T05:42:26.074Z,29.03
2023-02-12T05:44:54.561Z,26.07
2023-02-12T05:47:29.379Z,25.00
2023-02-12T05:49:57.892Z,27.03
2023-02-12T05:52:33.092Z,26.00
2023-02-12T05:55:02.961Z,26.80
2023-02-12T05:57:38.054Z,28.20
2023-02-12T06:00:08.369Z,26.57
2023-02-12T06:02:43.412Z,26.53
2023-02-12T06:05:18.433Z,27.73
2023-02-12T06:07:53.177Z,28.43
2023-02-12T06:10:23.329Z,25.70
2023-02-12T06:13:02.093Z,27.23
2023-02-12T06:15:30.785Z,28.70
2023-02-12T06:18:06.185Z,28.27
2023-02-12T06:20:35.149Z,26.33
2023-02-12T06:23:10.413Z,27.03
2023-02-12T06:25:40.749Z,28.27
2023-02-12T06:28:16.165Z,25.83
2023-02-12T06:30:45.077Z,26.73
2023-02-12T06:33:20.126Z,26.70
2023-02-12T06:35:48.651Z,31.40
2023-02-12T06:38:24.236Z,28.97
2023-02-12T06:40:54.420Z,27.23
2023-02-12T06:43:29.123Z,27.47
2023-02-12T06:45:57.801Z,27.03
2023-02-12T06:48:33.466Z,28.10
2023-02-12T06:51:07.425Z,25.30
2023-02-12T06:53:43.416Z,26.90
2023-02-12T06:56:14.490Z,22.73
2023-02-12T06:58:51.158Z,25.17
2023-02-12T07:01:21.891Z,27.87
2023-02-12T07:04:05.433Z,23.80
2023-02-12T07:06:36.058Z,27.90
2023-02-12T07:09:12.204Z,24.57
2023-02-12T07:11:42.140Z,24.53
2023-02-12T07:14:23.414Z,30.07
2023-02-12T07:16:51.943Z,31.43
2023-02-12T07:19:27.229Z,29.67
2023-02-12T07:21:55.934Z,29.73
2023-02-12T07:24:30.164Z,27.30
2023-02-12T07:27:00.099Z,28.87
2023-02-12T07:29:35.236Z,30.23
2023-02-12T07:32:03.796Z,30.33
2023-02-12T07:34:39.177Z,29.77
2023-02-12T07:37:08.481Z,32.03
2023-02-12T07:39:43.248Z,27.83
2023-02-12T07:42:15.436Z,29.93
2023-02-12T07:44:50.366Z,29.13
2023-02-12T07:47:19.130Z,28.97
2023-02-12T07:49:54.250Z,29.13
2023-02-12T07:52:22.793Z,30.93
2023-02-12T07:54:58.495Z,29.47
2023-02-12T07:57:28.574Z,30.47
2023-02-12T08:00:04.257Z,30.90
2023-02-12T08:02:52.556Z,28.50
2023-02-12T08:05:28.237Z,30.50
2023-02-12T08:07:56.852Z,29.77
2023-02-12T08:10:32.606Z,31.97
2023-02-12T08:13:02.783Z,30.77
2023-02-12T08:15:38.248Z,27.53
2023-02-12T08:18:06.815Z,28.37
2023-02-12T08:20:42.273Z,29.73
2023-02-12T08:23:10.647Z,29.40
2023-02-12T08:25:45.482Z,27.67
2023-02-12T08:28:15.365Z,28.87
2023-02-12T08:30:50.585Z,26.87
2023-02-12T08:33:19.194Z,27.77
2023-02-12T08:35:54.389Z,33.63
2023-02-12T08:38:22.961Z,28.33
2023-02-12T08:40:58.513Z,27.83
2023-02-12T08:43:28.921Z,28.47
2023-02-12T08:46:09.411Z,27.53
2023-02-12T08:48:38.418Z,29.03
2023-02-12T08:51:15.219Z,33.43
2023-02-12T08:53:45.569Z,30.90
2023-02-12T08:56:22.525Z,33.43
2023-02-12T08:58:53.779Z,30.67
2023-02-12T09:01:30.630Z,29.87
2023-02-12T09:04:19.514Z,32.53
2023-02-12T09:06:55.545Z,33.53
2023-02-12T09:09:24.452Z,36.43
2023-02-12T09:11:59.248Z,35.23
2023-02-12T09:14:29.318Z,36.37
2023-02-12T09:17:05.522Z,32.77
2023-02-12T09:19:34.061Z,31.83
2023-02-12T09:22:09.354Z,33.63
2023-02-12T09:24:38.872Z,39.57
2023-02-12T09:27:14.292Z,35.00
2023-02-12T09:29:44.583Z,41.03
2023-02-12T09:32:19.324Z,31.13
2023-02-12T09:34:47.766Z,32.37
2023-02-12T09:37:23.304Z,35.03
2023-02-12T09:39:58.260Z,34.17
2023-02-12T09:42:39.052Z,34.70
2023-02-12T09:45:26.313Z,34.27
2023-02-12T09:48:01.203Z,31.23
2023-02-12T09:50:44.347Z,33.90
2023-02-12T09:53:16.393Z,29.43
2023-02-12T09:55:52.285Z,29.10
2023-02-12T09:58:31.286Z,29.47
2023-02-12T10:01:09.461Z,29.53
2023-02-12T10:03:58.333Z,32.27
2023-02-12T10:06:36.612Z,30.63
2023-02-12T10:09:22.632Z,30.70
2023-02-12T10:12:12.381Z,30.10
2023-02-12T10:15:04.484Z,30.03
2023-02-12T10:17:49.359Z,29.37
2023-02-12T10:20:47.546Z,29.43
2023-02-12T10:23:35.394Z,30.30
2023-02-12T10:26:12.342Z,32.07
2023-02-12T10:28:49.413Z,28.53
2023-02-12T10:31:28.464Z,29.87
2023-02-12T10:34:05.377Z,28.50
2023-02-12T10:36:42.081Z,28.50
2023-02-12T10:39:24.700Z,31.67
2023-02-12T10:42:07.640Z,28.73
2023-02-12T10:44:36.156Z,28.33
2023-02-12T10:47:11.632Z,28.17
2023-02-12T10:49:41.787Z,27.33
2023-02-12T10:52:23.672Z,29.40
2023-02-12T10:54:52.511Z,28.63
2023-02-12T10:57:30.392Z,28.47
2023-02-12T11:00:16.933Z,28.33
2023-02-12T11:03:09.406Z,30.37
2023-02-12T11:05:41.683Z,30.90
2023-02-12T11:08:37.438Z,29.67
2023-02-12T11:11:09.060Z,31.67
2023-02-12T11:13:45.395Z,33.47
2023-02-12T11:16:14.686Z,30.87
2023-02-12T11:18:50.411Z,29.93
2023-02-12T11:21:25.574Z,30.67
2023-02-12T11:24:00.432Z,30.60
2023-02-12T11:26:30.602Z,32.23
2023-02-12T11:29:19.424Z,32.97
2023-02-12T11:32:02.016Z,32.30
2023-02-12T11:34:37.716Z,33.37
2023-02-12T11:37:18.195Z,33.73
2023-02-12T11:39:56.538Z,33.60
2023-02-12T11:42:28.241Z,32.77
2023-02-12T11:45:05.544Z,34.53
2023-02-12T11:47:36.981Z,30.80
2023-02-12T11:50:16.412Z,36.87
2023-02-12T11:52:52.847Z,31.40
2023-02-12T11:55:33.724Z,32.77
2023-02-12T11:58:12.756Z,35.63
2023-02-12T12:01:01.373Z,32.00
2023-02-12T12:03:58.508Z,32.23
2023-02-12T12:06:36.617Z,34.20
2023-02-12T12:09:21.435Z,31.73
2023-02-12T12:11:58.480Z,30.63
2023-02-12T12:14:37.677Z,34.53
2023-02-12T12:17:42.964Z,37.60
2023-02-12T12:20:21.565Z,29.83
2023-02-12T12:22:55.902Z,30.97
2023-02-12T12:25:34.724Z,30.80
2023-02-12T12:28:13.589Z,30.93
2023-02-12T12:31:03.490Z,33.53
2023-02-12T12:33:39.574Z,32.70
2023-02-12T12:36:52.778Z,35.40
2023-02-12T12:39:56.429Z,34.17
2023-02-12T12:43:12.508Z,33.10
2023-02-12T12:46:23.458Z,28.07
2023-02-12T12:49:12.771Z,29.53
2023-02-12T12:52:20.614Z,27.03
2023-02-12T12:55:08.481Z,28.80
2023-02-12T12:57:54.493Z,29.03
2023-02-12T13:00:39.081Z,29.27
2023-02-12T13:03:52.515Z,29.57
2023-02-12T13:06:43.010Z,27.53
2023-02-12T13:09:50.732Z,28.77
2023-02-12T13:12:42.609Z,28.73
2023-02-12T13:15:20.679Z,31.07
2023-02-12T13:18:02.592Z,33.67
2023-02-12T13:20:42.370Z,29.73
2023-02-12T13:23:24.793Z,30.50
2023-02-12T13:26:02.363Z,30.13
2023-02-12T13:28:42.492Z,32.70
2023-02-12T13:34:15.519Z,32.80
2023-02-12T13:36:44.672Z,30.90
2023-02-12T13:39:32.198Z,30.60
2023-02-12T13:42:27.205Z,30.13
2023-02-12T13:45:09.483Z,28.20
2023-02-12T13:47:48.320Z,28.67
2023-02-12T13:50:43.512Z,31.57
2023-02-12T13:53:21.337Z,28.47
2023-02-12T13:56:11.858Z,28.03
2023-02-12T13:58:49.566Z,30.27
2023-02-12T14:01:50.659Z,31.60
2023-02-12T14:04:48.462Z,31.53
2023-02-12T14:07:17.954Z,35.80
2023-02-12T14:09:54.636Z,36.13
2023-02-12T14:12:35.811Z,34.73
2023-02-12T14:15:15.597Z,36.37
2023-02-12T14:17:55.437Z,35.23
2023-02-12T14:20:36.493Z,32.43
2023-02-12T14:23:24.447Z,33.63
2023-02-12T14:26:14.535Z,32.60
2023-02-12T14:28:57.152Z,40.43
2023-02-12T14:31:43.901Z,36.17
2023-02-12T14:34:59.171Z,39.13
2023-02-12T14:37:43.908Z,35.73
2023-02-12T14:40:44.487Z,36.23
2023-02-12T14:43:35.581Z,35.37
2023-02-12T14:46:57.588Z,37.50
2023-02-12T14:49:29.859Z,39.80
2023-02-12T14:52:08.525Z,37.43
2023-02-12T14:54:42.871Z,43.40
2023-02-12T14:57:28.884Z,40.33
2023-02-12T15:00:00.190Z,36.53
2023-02-12T15:02:37.563Z,35.90
2023-02-12T15:05:20.552Z,34.07
2023-02-12T15:08:02.667Z,32.37
2023-02-12T15:10:34.055Z,36.30
2023-02-12T15:13:22.583Z,32.87
2023-02-12T15:15:54.874Z,32.00
2023-02-12T15:18:37.558Z,31.97
2023-02-12T15:21:16.654Z,29.83
2023-02-12T15:23:54.012Z,34.37
2023-02-12T15:26:25.624Z,30.40
2023-02-12T15:29:01.897Z,29.50
2023-02-12T15:31:32.301Z,29.90
2023-02-12T15:34:10.620Z,27.50
2023-02-12T15:36:41.071Z,32.90
2023-02-12T15:39:18.657Z,29.23
2023-02-12T15:41:47.952Z,30.63
2023-02-12T15:44:35.590Z,28.70
2023-02-12T15:47:12.928Z,30.40
2023-02-12T15:49:51.112Z,29.13
2023-02-12T15:52:24.812Z,29.00
2023-02-12T15:55:00.896Z,32.13
2023-02-12T15:57:29.499Z,30.13
2023-02-12T16:00:10.624Z,28.17
2023-02-12T16:02:39.350Z,28.87
2023-02-12T16:05:21.932Z,24.53
2023-02-12T16:07:52.845Z,27.57
2023-02-12T16:10:28.613Z,26.77
2023-02-12T16:12:57.307Z,28.63
2023-02-12T16:15:37.696Z,25.33
2023-02-12T16:18:07.272Z,26.87
2023-02-12T16:20:42.946Z,22.50
2023-02-12T16:23:15.425Z,27.00
2023-02-12T16:25:50.913Z,26.80
2023-02-12T16:28:26.121Z,24.70
2023-02-12T16:31:01.979Z,26.13
2023-02-12T16:33:35.924Z,22.67
2023-02-12T16:36:13.957Z,23.20
2023-02-12T16:38:45.633Z,23.73
2023-02-12T16:41:31.647Z,25.57
2023-02-12T16:44:23.637Z,24.50
2023-02-12T16:47:00.905Z,23.90
2023-02-12T16:49:30.300Z,24.77
2023-02-12T16:52:34.656Z,27.10
2023-02-12T16:55:12.117Z,22.97
2023-02-12T16:57:40.568Z,23.20
2023-02-12T17:00:23.734Z,24.80
2023-02-12T17:02:52.375Z,24.67
2023-02-12T17:05:33.610Z,22.97
2023-02-12T17:08:08.185Z,22.17
2023-02-12T17:10:44.745Z,22.93
2023-02-12T17:13:13.616Z,25.00
2023-02-12T17:16:00.255Z,22.47
2023-02-12T17:18:33.071Z,24.63
2023-02-12T17:21:10.681Z,26.07
2023-02-12T17:23:41.220Z,24.73
2023-02-12T17:26:19.059Z,25.73
2023-02-12T17:28:47.542Z,24.30
2023-02-12T17:31:23.026Z,23.80
2023-02-12T17:33:51.593Z,24.30
2023-02-12T17:36:26.728Z,25.97
2023-02-12T17:38:55.352Z,24.97
2023-02-12T17:41:32.719Z,23.70
2023-02-12T17:44:01.379Z,25.97
2023-02-12T17:46:37.706Z,25.60
2023-02-12T17:49:06.818Z,27.77
2023-02-12T17:51:42.779Z,27.40
2023-02-12T17:54:11.005Z,28.30
2023-02-12T17:56:47.773Z,28.23
2023-02-12T17:59:16.614Z,29.27
2023-02-12T18:01:52.024Z,27.17
2023-02-12T18:04:40.798Z,26.63
2023-02-12T18:07:16.009Z,29.63
2023-02-12T18:09:44.644Z,27.80
2023-02-12T18:12:20.712Z,30.80
2023-02-12T18:14:49.570Z,32.67
2023-02-12T18:17:24.724Z,28.33
2023-02-12T18:19:53.874Z,29.77
2023-02-12T18:22:29.718Z,29.43
2023-02-12T18:24:58.191Z,28.07
2023-02-12T18:27:37.024Z,32.30
2023-02-12T18:30:06.072Z,30.23
2023-02-12T18:32:41.154Z,31.50
2023-02-12T18:35:09.993Z,33.50
2023-02-12T18:37:45.812Z,31.77
2023-02-12T18:40:14.581Z,31.83
2023-02-12T18:42:50.762Z,33.53
2023-02-12T18:45:20.145Z,31.83
2023-02-12T18:47:55.090Z,34.50
2023-02-12T18:50:23.549Z,38.43
2023-02-12T18:52:59.103Z,36.93
2023-02-12T18:55:27.522Z,36.77
2023-02-12T18:58:03.823Z,37.90
2023-02-12T19:00:32.538Z,38.63
2023-02-12T19:03:07.785Z,39.30
2023-02-12T19:05:43.169Z,37.50
2023-02-12T19:08:18.783Z,37.17
2023-02-12T19:10:49.840Z,39.33
2023-02-12T19:13:27.820Z,34.83
2023-02-12T19:15:56.622Z,39.03
2023-02-12T19:18:31.801Z,36.63
2023-02-12T19:21:00.996Z,40.27
2023-02-12T19:23:35.848Z,35.93
2023-02-12T19:26:06.318Z,38.93
2023-02-12T19:28:45.091Z,36.67
2023-02-12T19:31:15.771Z,41.67
2023-02-12T19:33:51.820Z,39.10
2023-02-12T19:36:21.894Z,42.57
2023-02-12T19:38:56.811Z,41.40
2023-02-12T19:41:27.976Z,42.93
2023-02-12T19:44:05.843Z,40.00
2023-02-12T19:46:34.504Z,43.70
2023-02-12T19:49:10.880Z,44.27
2023-02-12T19:51:39.752Z,41.23
2023-02-12T19:54:16.889Z,45.30
2023-02-12T19:56:46.392Z,44.00
2023-02-12T19:59:24.864Z,42.50
2023-02-12T20:01:53.323Z,42.87
2023-02-12T20:04:30.082Z,47.53
2023-02-12T20:07:12.145Z,45.00
2023-02-12T20:09:41.503Z,43.60
2023-02-12T20:12:17.232Z,45.00
2023-02-12T20:14:47.079Z,42.47
2023-02-12T20:17:21.883Z,46.10
2023-02-12T20:19:50.500Z,45.80
2023-02-12T20:22:26.192Z,47.83
2023-02-12T20:24:54.944Z,45.57
2023-02-12T20:27:30.146Z,45.07
2023-02-12T20:30:00.021Z,43.63
2023-02-12T20:32:35.165Z,44.80
2023-02-12T20:35:04.105Z,45.03
2023-02-12T20:37:40.853Z,46.03
2023-02-12T20:40:10.441Z,43.33
2023-02-12T20:42:45.897Z,44.73
2023-02-12T20:45:15.864Z,49.87
2023-02-12T20:47:50.885Z,47.60
2023-02-12T20:50:19.637Z,44.87
2023-02-12T20:52:54.868Z,48.53
2023-02-12T20:55:23.428Z,45.57
2023-02-12T20:57:59.182Z,47.87
2023-02-12T21:00:29.620Z,49.93
2023-02-12T21:03:05.915Z,48.17
2023-02-12T21:05:41.476Z,48.23
2023-02-12T21:08:16.850Z,48.87
2023-02-12T21:10:45.671Z,47.23
2023-02-12T21:13:20.888Z,47.50
2023-02-12T21:15:51.083Z,50.13
2023-02-12T21:18:28.927Z,46.50
2023-02-12T21:21:02.318Z,48.50
2023-02-12T21:23:36.913Z,46.60
2023-02-12T21:26:06.695Z,46.07
2023-02-12T21:28:43.038Z,42.77
2023-02-12T21:31:16.123Z,45.50
2023-02-12T21:33:52.942Z,45.60
2023-02-12T21:36:23.907Z,48.03
2023-02-12T21:38:59.934Z,41.57
2023-02-12T21:41:30.942Z,46.30
2023-02-12T21:44:07.939Z,46.33
2023-02-12T21:46:38.290Z,50.10
2023-02-12T21:49:14.208Z,44.00
2023-02-12T21:51:45.354Z,43.40
2023-02-12T21:54:21.930Z,46.83
2023-02-12T21:56:51.680Z,46.50
2023-02-12T21:59:26.949Z,49.27
2023-02-12T22:01:58.630Z,46.30
2023-02-12T22:04:33.947Z,50.23
2023-02-12T22:07:03.620Z,49.80
2023-02-12T22:09:39.210Z,46.30
2023-02-12T22:12:08.187Z,47.17
2023-02-12T22:14:43.029Z,50.43
2023-02-12T22:17:13.354Z,49.10
2023-02-12T22:19:48.955Z,51.33
2023-02-12T22:22:17.440Z,51.13
2023-02-12T22:24:52.884Z,49.07
2023-02-12T22:27:21.478Z,46.60
2023-02-12T22:29:56.992Z,49.53
2023-02-12T22:32:27.444Z,48.40
2023-02-12T22:35:03.243Z,49.57
2023-02-12T22:37:31.970Z,47.57
2023-02-12T22:40:07.538Z,52.37
2023-02-12T22:42:36.185Z,46.73
2023-02-12T22:45:10.934Z,50.30
2023-02-12T22:47:41.224Z,51.43
2023-02-12T22:50:16.971Z,48.10
2023-02-12T22:52:45.858Z,48.40
2023-02-12T22:55:21.009Z,51.23
2023-02-12T22:57:49.805Z,45.47
2023-02-12T23:00:25.951Z,50.37
2023-02-12T23:02:56.393Z,51.10
2023-02-12T23:05:31.968Z,49.67
2023-02-12T23:08:00.569Z,48.47
2023-02-12T23:10:36.048Z,52.87
2023-02-12T23:13:05.649Z,48.67
2023-02-12T23:15:40.969Z,46.33
2023-02-12T23:18:17.991Z,46.07
2023-02-12T23:20:46.542Z,48.83
2023-02-12T23:23:22.031Z,49.97
2023-02-12T23:25:51.170Z,50.00
2023-02-12T23:28:26.375Z,51.43
2023-02-12T23:30:55.569Z,51.33
2023-02-12T23:33:32.054Z,51.90
2023-02-12T23:36:00.787Z,55.17
2023-02-12T23:38:36.083Z,51.27
2023-02-12T23:41:04.611Z,52.33
2023-02-12T23:43:40.067Z,55.93
2023-02-12T23:46:09.708Z,55.17
2023-02-12T23:48:46.085Z,49.87
2023-02-12T23:51:14.806Z,48.03
2023-02-12T23:53:50.346Z,50.53
2023-02-12T23:56:19.142Z,52.47
2023-02-12T23:58:54.027Z,51.53
